sensor_id;sensor_type;location;lat;lon;timestamp;temperature;humidity
10030;DHT22;5055;52.054;8.524;2023-01-19T00:00:33;0.80;97.00
10030;DHT22;5055;52.054;8.524;2023-01-19T00:03:03;0.80;97.00
10030;DHT22;5055;52.054;8.524;2023-01-19T00:05:31;0.90;97.00
10030;DHT22;5055;52.054;8.524;2023-01-19T00:08:00;0.90;97.00
10030;DHT22;5055;52.054;8.524;2023-01-19T00:10:41;0.90;97.00
10030;DHT22;5055;52.054;8.524;2023-01-19T00:13:11;0.90;97.00
10030;DHT22;5055;52.054;8.524;2023-01-19T00:15:40;0.90;97.00
10030;DHT22;5055;52.054;8.524;2023-01-19T00:18:08;0.90;97.00
10030;DHT22;5055;52.054;8.524;2023-01-19T00:20:37;0.90;97.00
10030;DHT22;5055;52.054;8.524;2023-01-19T00:23:05;1.00;97.00
10030;DHT22;5055;52.054;8.524;2023-01-19T00:25:34;1.00;97.00
10030;DHT22;5055;52.054;8.524;2023-01-19T00:28:11;1.10;97.00
10030;DHT22;5055;52.054;8.524;2023-01-19T00:30:40;1.10;97.00
10030;DHT22;5055;52.054;8.524;2023-01-19T00:33:09;1.10;97.00
10030;DHT22;5055;52.054;8.524;2023-01-19T00:35:39;1.10;97.00
10030;DHT22;5055;52.054;8.524;2023-01-19T00:38:10;1.10;97.00
10030;DHT22;5055;52.054;8.524;2023-01-19T00:40:38;1.00;97.00
10030;DHT22;5055;52.054;8.524;2023-01-19T00:43:07;1.00;97.00
10030;DHT22;5055;52.054;8.524;2023-01-19T00:45:36;1.10;97.00
10030;DHT22;5055;52.054;8.524;2023-01-19T00:48:05;1.10;97.00
10030;DHT22;5055;52.054;8.524;2023-01-19T00:50:33;1.10;97.00
10030;DHT22;5055;52.054;8.524;2023-01-19T00:53:02;1.10;97.00
10030;DHT22;5055;52.054;8.524;2023-01-19T00:55:31;1.10;97.00
10030;DHT22;5055;52.054;8.524;2023-01-19T00:58:00;1.20;97.00
10030;DHT22;5055;52.054;8.524;2023-01-19T01:00:29;1.10;97.00
10030;DHT22;5055;52.054;8.524;2023-01-19T01:02:59;1.10;97.00
10030;DHT22;5055;52.054;8.524;2023-01-19T01:05:28;1.10;97.00
10030;DHT22;5055;52.054;8.524;2023-01-19T01:07:56;1.10;97.00
10030;DHT22;5055;52.054;8.524;2023-01-19T01:10:26;1.10;97.00
10030;DHT22;5055;52.054;8.524;2023-01-19T01:12:55;1.10;97.00
10030;DHT22;5055;52.054;8.524;2023-01-19T01:15:25;1.10;97.00
10030;DHT22;5055;52.054;8.524;2023-01-19T01:17:55;1.00;97.00
10030;DHT22;5055;52.054;8.524;2023-01-19T01:20:26;1.00;97.00
10030;DHT22;5055;52.054;8.524;2023-01-19T01:22:56;1.00;97.00
10030;DHT22;5055;52.054;8.524;2023-01-19T01:25:26;1.00;97.00
10030;DHT22;5055;52.054;8.524;2023-01-19T01:27:57;1.00;97.00
10030;DHT22;5055;52.054;8.524;2023-01-19T01:30:25;1.00;97.00
10030;DHT22;5055;52.054;8.524;2023-01-19T01:32:54;1.00;97.00
10030;DHT22;5055;52.054;8.524;2023-01-19T01:35:22;1.00;97.00
10030;DHT22;5055;52.054;8.524;2023-01-19T01:37:52;1.10;97.00
10030;DHT22;5055;52.054;8.524;2023-01-19T01:40:25;1.10;97.00
10030;DHT22;5055;52.054;8.524;2023-01-19T01:42:54;1.20;97.00
10030;DHT22;5055;52.054;8.524;2023-01-19T01:45:29;1.20;97.00
10030;DHT22;5055;52.054;8.524;2023-01-19T01:48:02;1.20;97.00
10030;DHT22;5055;52.054;8.524;2023-01-19T01:50:34;1.20;97.00
10030;DHT22;5055;52.054;8.524;2023-01-19T01:53:08;1.20;97.00
10030;DHT22;5055;52.054;8.524;2023-01-19T01:55:43;1.20;97.00
10030;DHT22;5055;52.054;8.524;2023-01-19T01:58:14;1.30;97.00
10030;DHT22;5055;52.054;8.524;2023-01-19T02:00:43;1.30;97.00
10030;DHT22;5055;52.054;8.524;2023-01-19T02:03:29;1.30;97.00
10030;DHT22;5055;52.054;8.524;2023-01-19T02:06:00;1.40;97.00
10030;DHT22;5055;52.054;8.524;2023-01-19T02:08:36;1.40;97.00
10030;DHT22;5055;52.054;8.524;2023-01-19T02:11:23;1.40;97.00
10030;DHT22;5055;52.054;8.524;2023-01-19T02:14:08;1.40;97.00
10030;DHT22;5055;52.054;8.524;2023-01-19T02:16:37;1.50;97.00
10030;DHT22;5055;52.054;8.524;2023-01-19T02:19:07;1.50;97.00
10030;DHT22;5055;52.054;8.524;2023-01-19T02:21:45;1.50;97.00
10030;DHT22;5055;52.054;8.524;2023-01-19T02:24:16;1.60;97.00
10030;DHT22;5055;52.054;8.524;2023-01-19T02:26:45;1.60;97.00
10030;DHT22;5055;52.054;8.524;2023-01-19T02:29:17;1.60;97.00
10030;DHT22;5055;52.054;8.524;2023-01-19T02:31:45;1.60;97.00
10030;DHT22;5055;52.054;8.524;2023-01-19T02:34:17;1.70;97.00
10030;DHT22;5055;52.054;8.524;2023-01-19T02:36:49;1.70;97.00
10030;DHT22;5055;52.054;8.524;2023-01-19T02:39:24;1.70;97.00
10030;DHT22;5055;52.054;8.524;2023-01-19T02:41:58;1.70;97.00
10030;DHT22;5055;52.054;8.524;2023-01-19T02:44:29;1.70;97.00
10030;DHT22;5055;52.054;8.524;2023-01-19T02:46:58;1.70;97.00
10030;DHT22;5055;52.054;8.524;2023-01-19T02:49:27;1.70;97.00
10030;DHT22;5055;52.054;8.524;2023-01-19T02:51:56;1.70;97.00
10030;DHT22;5055;52.054;8.524;2023-01-19T02:54:38;1.70;97.00
10030;DHT22;5055;52.054;8.524;2023-01-19T02:57:22;1.70;97.00
10030;DHT22;5055;52.054;8.524;2023-01-19T03:00:05;1.80;97.00
10030;DHT22;5055;52.054;8.524;2023-01-19T03:02:44;1.80;97.00
10030;DHT22;5055;52.054;8.524;2023-01-19T03:05:29;1.80;97.00
10030;DHT22;5055;52.054;8.524;2023-01-19T03:08:06;1.80;97.00
10030;DHT22;5055;52.054;8.524;2023-01-19T03:10:44;1.70;97.00
10030;DHT22;5055;52.054;8.524;2023-01-19T03:13:20;1.80;97.00
10030;DHT22;5055;52.054;8.524;2023-01-19T03:15:56;1.80;97.00
10030;DHT22;5055;52.054;8.524;2023-01-19T03:18:28;1.80;97.00
10030;DHT22;5055;52.054;8.524;2023-01-19T03:21:03;1.80;97.00
10030;DHT22;5055;52.054;8.524;2023-01-19T03:23:34;1.80;97.00
10030;DHT22;5055;52.054;8.524;2023-01-19T03:26:08;1.80;97.00
10030;DHT22;5055;52.054;8.524;2023-01-19T03:28:38;1.80;97.00
10030;DHT22;5055;52.054;8.524;2023-01-19T03:31:12;1.80;97.00
10030;DHT22;5055;52.054;8.524;2023-01-19T03:33:46;1.90;97.00
10030;DHT22;5055;52.054;8.524;2023-01-19T03:36:22;1.90;97.00
10030;DHT22;5055;52.054;8.524;2023-01-19T03:38:54;1.90;97.00
10030;DHT22;5055;52.054;8.524;2023-01-19T03:41:27;1.90;97.00
10030;DHT22;5055;52.054;8.524;2023-01-19T03:43:57;1.90;97.00
10030;DHT22;5055;52.054;8.524;2023-01-19T03:46:26;1.90;97.00
10030;DHT22;5055;52.054;8.524;2023-01-19T03:48:56;1.90;97.00
10030;DHT22;5055;52.054;8.524;2023-01-19T03:51:25;1.90;97.00
10030;DHT22;5055;52.054;8.524;2023-01-19T03:53:54;1.90;97.00
10030;DHT22;5055;52.054;8.524;2023-01-19T03:56:24;2.00;97.00
10030;DHT22;5055;52.054;8.524;2023-01-19T03:58:53;2.00;97.00
10030;DHT22;5055;52.054;8.524;2023-01-19T04:01:23;2.00;97.00
10030;DHT22;5055;52.054;8.524;2023-01-19T04:03:52;2.00;97.00
10030;DHT22;5055;52.054;8.524;2023-01-19T04:06:20;2.00;97.00
10030;DHT22;5055;52.054;8.524;2023-01-19T04:08:50;2.00;97.00
10030;DHT22;5055;52.054;8.524;2023-01-19T04:11:19;2.00;97.00
10030;DHT22;5055;52.054;8.524;2023-01-19T04:13:49;2.00;97.00
10030;DHT22;5055;52.054;8.524;2023-01-19T04:16:17;2.00;97.00
10030;DHT22;5055;52.054;8.524;2023-01-19T04:18:47;2.00;97.00
10030;DHT22;5055;52.054;8.524;2023-01-19T04:21:16;2.00;97.00
10030;DHT22;5055;52.054;8.524;2023-01-19T04:23:46;2.10;97.00
10030;DHT22;5055;52.054;8.524;2023-01-19T04:26:15;2.10;97.00
10030;DHT22;5055;52.054;8.524;2023-01-19T04:28:44;2.10;97.00
10030;DHT22;5055;52.054;8.524;2023-01-19T04:31:13;2.10;97.00
10030;DHT22;5055;52.054;8.524;2023-01-19T04:33:42;2.10;97.00
10030;DHT22;5055;52.054;8.524;2023-01-19T04:36:10;2.10;97.00
10030;DHT22;5055;52.054;8.524;2023-01-19T04:38:39;2.10;97.00
10030;DHT22;5055;52.054;8.524;2023-01-19T04:41:07;2.10;97.00
10030;DHT22;5055;52.054;8.524;2023-01-19T04:43:35;2.10;97.00
10030;DHT22;5055;52.054;8.524;2023-01-19T04:46:04;2.10;97.00
10030;DHT22;5055;52.054;8.524;2023-01-19T04:48:34;2.20;97.00
10030;DHT22;5055;52.054;8.524;2023-01-19T04:51:02;2.20;97.00
10030;DHT22;5055;52.054;8.524;2023-01-19T04:53:31;2.20;97.00
10030;DHT22;5055;52.054;8.524;2023-01-19T04:55:59;2.20;97.00
10030;DHT22;5055;52.054;8.524;2023-01-19T04:58:28;2.20;97.00
10030;DHT22;5055;52.054;8.524;2023-01-19T05:00:56;2.20;97.00
10030;DHT22;5055;52.054;8.524;2023-01-19T05:03:24;2.20;97.00
10030;DHT22;5055;52.054;8.524;2023-01-19T05:05:54;2.20;97.00
10030;DHT22;5055;52.054;8.524;2023-01-19T05:08:22;2.20;97.00
10030;DHT22;5055;52.054;8.524;2023-01-19T05:10:51;2.30;97.00
10030;DHT22;5055;52.054;8.524;2023-01-19T05:13:19;2.20;97.00
10030;DHT22;5055;52.054;8.524;2023-01-19T05:15:47;2.20;97.00
10030;DHT22;5055;52.054;8.524;2023-01-19T05:18:16;2.20;97.00
10030;DHT22;5055;52.054;8.524;2023-01-19T05:20:44;2.30;97.00
10030;DHT22;5055;52.054;8.524;2023-01-19T05:23:15;2.30;97.00
10030;DHT22;5055;52.054;8.524;2023-01-19T05:25:43;2.30;97.00
10030;DHT22;5055;52.054;8.524;2023-01-19T05:28:11;2.30;97.00
10030;DHT22;5055;52.054;8.524;2023-01-19T05:30:41;2.40;97.00
10030;DHT22;5055;52.054;8.524;2023-01-19T05:33:09;2.40;97.00
10030;DHT22;5055;52.054;8.524;2023-01-19T05:35:38;2.40;97.00
10030;DHT22;5055;52.054;8.524;2023-01-19T05:38:06;2.40;97.00
10030;DHT22;5055;52.054;8.524;2023-01-19T05:40:36;2.40;97.00
10030;DHT22;5055;52.054;8.524;2023-01-19T05:43:05;2.40;97.00
10030;DHT22;5055;52.054;8.524;2023-01-19T05:45:33;2.40;97.00
10030;DHT22;5055;52.054;8.524;2023-01-19T05:48:02;2.40;97.00
10030;DHT22;5055;52.054;8.524;2023-01-19T05:50:30;2.40;97.00
10030;DHT22;5055;52.054;8.524;2023-01-19T05:52:59;2.40;97.00
10030;DHT22;5055;52.054;8.524;2023-01-19T05:55:28;2.40;97.00
10030;DHT22;5055;52.054;8.524;2023-01-19T05:58:02;2.40;97.00
10030;DHT22;5055;52.054;8.524;2023-01-19T06:00:37;2.40;97.00
10030;DHT22;5055;52.054;8.524;2023-01-19T06:03:06;2.40;97.00
10030;DHT22;5055;52.054;8.524;2023-01-19T06:05:34;2.30;97.00
10030;DHT22;5055;52.054;8.524;2023-01-19T06:08:05;2.30;97.00
10030;DHT22;5055;52.054;8.524;2023-01-19T06:10:34;2.20;97.00
10030;DHT22;5055;52.054;8.524;2023-01-19T06:13:03;2.20;97.00
10030;DHT22;5055;52.054;8.524;2023-01-19T06:15:32;2.20;97.00
10030;DHT22;5055;52.054;8.524;2023-01-19T06:18:00;2.10;97.00
10030;DHT22;5055;52.054;8.524;2023-01-19T06:20:29;2.10;97.00
10030;DHT22;5055;52.054;8.524;2023-01-19T06:23:00;2.10;97.00
10030;DHT22;5055;52.054;8.524;2023-01-19T06:25:29;2.10;97.00
10030;DHT22;5055;52.054;8.524;2023-01-19T06:27:57;2.00;97.00
10030;DHT22;5055;52.054;8.524;2023-01-19T06:30:27;2.00;97.00
10030;DHT22;5055;52.054;8.524;2023-01-19T06:32:55;2.00;97.00
10030;DHT22;5055;52.054;8.524;2023-01-19T06:35:24;2.00;97.00
10030;DHT22;5055;52.054;8.524;2023-01-19T06:37:53;1.90;97.00
10030;DHT22;5055;52.054;8.524;2023-01-19T06:40:25;1.90;97.00
10030;DHT22;5055;52.054;8.524;2023-01-19T06:42:53;1.90;97.00
10030;DHT22;5055;52.054;8.524;2023-01-19T06:45:21;1.90;97.00
10030;DHT22;5055;52.054;8.524;2023-01-19T06:47:51;1.80;97.00
10030;DHT22;5055;52.054;8.524;2023-01-19T06:50:19;1.80;97.00
10030;DHT22;5055;52.054;8.524;2023-01-19T06:52:49;1.80;97.00
10030;DHT22;5055;52.054;8.524;2023-01-19T06:55:17;1.70;97.00
10030;DHT22;5055;52.054;8.524;2023-01-19T06:57:46;1.70;97.00
10030;DHT22;5055;52.054;8.524;2023-01-19T07:00:15;1.70;97.00
10030;DHT22;5055;52.054;8.524;2023-01-19T07:02:44;1.70;97.00
10030;DHT22;5055;52.054;8.524;2023-01-19T07:05:13;1.70;97.00
10030;DHT22;5055;52.054;8.524;2023-01-19T07:07:42;1.60;97.00
10030;DHT22;5055;52.054;8.524;2023-01-19T07:10:11;1.60;97.00
10030;DHT22;5055;52.054;8.524;2023-01-19T07:12:41;1.60;97.00
10030;DHT22;5055;52.054;8.524;2023-01-19T07:15:12;1.50;97.00
10030;DHT22;5055;52.054;8.524;2023-01-19T07:17:41;1.50;97.00
10030;DHT22;5055;52.054;8.524;2023-01-19T07:20:10;1.40;97.00
10030;DHT22;5055;52.054;8.524;2023-01-19T07:22:42;1.40;97.00
10030;DHT22;5055;52.054;8.524;2023-01-19T07:25:12;1.40;97.00
10030;DHT22;5055;52.054;8.524;2023-01-19T07:27:41;1.40;97.00
10030;DHT22;5055;52.054;8.524;2023-01-19T07:30:11;1.30;97.00
10030;DHT22;5055;52.054;8.524;2023-01-19T07:32:42;1.30;97.00
10030;DHT22;5055;52.054;8.524;2023-01-19T07:35:10;1.30;97.00
10030;DHT22;5055;52.054;8.524;2023-01-19T07:37:38;1.20;97.00
10030;DHT22;5055;52.054;8.524;2023-01-19T07:40:09;1.20;97.00
10030;DHT22;5055;52.054;8.524;2023-01-19T07:42:38;1.20;97.00
10030;DHT22;5055;52.054;8.524;2023-01-19T07:45:07;1.20;97.00
10030;DHT22;5055;52.054;8.524;2023-01-19T07:47:36;1.20;97.00
10030;DHT22;5055;52.054;8.524;2023-01-19T07:50:05;1.20;97.00
10030;DHT22;5055;52.054;8.524;2023-01-19T07:52:33;1.20;97.00
10030;DHT22;5055;52.054;8.524;2023-01-19T07:55:02;1.20;97.00
10030;DHT22;5055;52.054;8.524;2023-01-19T07:57:32;1.20;97.00
10030;DHT22;5055;52.054;8.524;2023-01-19T08:00:01;1.10;97.00
10030;DHT22;5055;52.054;8.524;2023-01-19T08:02:29;1.20;97.00
10030;DHT22;5055;52.054;8.524;2023-01-19T08:04:59;1.20;97.00
10030;DHT22;5055;52.054;8.524;2023-01-19T08:07:28;1.20;97.00
10030;DHT22;5055;52.054;8.524;2023-01-19T08:09:57;1.20;97.00
10030;DHT22;5055;52.054;8.524;2023-01-19T08:12:25;1.20;97.00
10030;DHT22;5055;52.054;8.524;2023-01-19T08:14:55;1.20;97.00
10030;DHT22;5055;52.054;8.524;2023-01-19T08:17:23;1.20;97.00
10030;DHT22;5055;52.054;8.524;2023-01-19T08:19:52;1.20;97.00
10030;DHT22;5055;52.054;8.524;2023-01-19T08:22:20;1.20;97.00
10030;DHT22;5055;52.054;8.524;2023-01-19T08:24:48;1.20;97.00
10030;DHT22;5055;52.054;8.524;2023-01-19T08:27:17;1.20;97.00
10030;DHT22;5055;52.054;8.524;2023-01-19T08:29:46;1.20;97.00
10030;DHT22;5055;52.054;8.524;2023-01-19T08:32:16;1.20;97.00
10030;DHT22;5055;52.054;8.524;2023-01-19T08:34:44;1.20;97.00
10030;DHT22;5055;52.054;8.524;2023-01-19T08:37:13;1.20;97.00
10030;DHT22;5055;52.054;8.524;2023-01-19T08:39:41;1.20;97.00
10030;DHT22;5055;52.054;8.524;2023-01-19T08:42:10;1.20;97.00
10030;DHT22;5055;52.054;8.524;2023-01-19T08:44:38;1.20;97.00
10030;DHT22;5055;52.054;8.524;2023-01-19T08:47:24;1.20;97.00
10030;DHT22;5055;52.054;8.524;2023-01-19T08:49:52;1.20;97.00
10030;DHT22;5055;52.054;8.524;2023-01-19T08:52:20;1.30;97.00
10030;DHT22;5055;52.054;8.524;2023-01-19T08:54:50;1.30;97.00
10030;DHT22;5055;52.054;8.524;2023-01-19T08:57:19;1.30;97.00
10030;DHT22;5055;52.054;8.524;2023-01-19T08:59:47;1.30;97.00
10030;DHT22;5055;52.054;8.524;2023-01-19T09:02:15;1.30;97.00
10030;DHT22;5055;52.054;8.524;2023-01-19T09:04:45;1.30;97.00
10030;DHT22;5055;52.054;8.524;2023-01-19T09:07:13;1.30;97.00
10030;DHT22;5055;52.054;8.524;2023-01-19T09:09:42;1.30;97.00
10030;DHT22;5055;52.054;8.524;2023-01-19T09:12:11;1.30;97.00
10030;DHT22;5055;52.054;8.524;2023-01-19T09:14:39;1.30;97.00
10030;DHT22;5055;52.054;8.524;2023-01-19T09:17:07;1.30;97.00
10030;DHT22;5055;52.054;8.524;2023-01-19T09:19:36;1.30;97.00
10030;DHT22;5055;52.054;8.524;2023-01-19T09:22:06;1.30;97.00
10030;DHT22;5055;52.054;8.524;2023-01-19T09:24:34;1.30;97.00
10030;DHT22;5055;52.054;8.524;2023-01-19T09:27:02;1.30;97.00
10030;DHT22;5055;52.054;8.524;2023-01-19T09:29:31;1.30;97.00
10030;DHT22;5055;52.054;8.524;2023-01-19T09:32:00;1.30;97.00
10030;DHT22;5055;52.054;8.524;2023-01-19T09:34:28;1.30;97.00
10030;DHT22;5055;52.054;8.524;2023-01-19T09:36:57;1.30;97.00
10030;DHT22;5055;52.054;8.524;2023-01-19T09:39:26;1.30;97.00
10030;DHT22;5055;52.054;8.524;2023-01-19T09:41:59;1.30;97.00
10030;DHT22;5055;52.054;8.524;2023-01-19T09:44:32;1.40;97.00
10030;DHT22;5055;52.054;8.524;2023-01-19T09:47:01;1.40;97.00
10030;DHT22;5055;52.054;8.524;2023-01-19T09:49:33;1.40;97.00
10030;DHT22;5055;52.054;8.524;2023-01-19T09:52:03;1.40;97.00
10030;DHT22;5055;52.054;8.524;2023-01-19T09:54:39;1.50;97.00
10030;DHT22;5055;52.054;8.524;2023-01-19T09:57:10;1.50;97.00
10030;DHT22;5055;52.054;8.524;2023-01-19T09:59:39;1.50;97.00
10030;DHT22;5055;52.054;8.524;2023-01-19T10:02:27;1.50;97.00
10030;DHT22;5055;52.054;8.524;2023-01-19T10:04:59;1.60;97.00
10030;DHT22;5055;52.054;8.524;2023-01-19T10:07:48;1.60;97.00
10030;DHT22;5055;52.054;8.524;2023-01-19T10:10:22;1.50;97.00
10030;DHT22;5055;52.054;8.524;2023-01-19T10:13:07;1.40;97.00
10030;DHT22;5055;52.054;8.524;2023-01-19T10:15:46;1.40;97.00
10030;DHT22;5055;52.054;8.524;2023-01-19T10:18:21;1.30;97.00
10030;DHT22;5055;52.054;8.524;2023-01-19T10:20:55;1.20;97.00
10030;DHT22;5055;52.054;8.524;2023-01-19T10:23:40;1.20;97.00
10030;DHT22;5055;52.054;8.524;2023-01-19T10:26:15;1.20;97.00
10030;DHT22;5055;52.054;8.524;2023-01-19T10:28:47;1.20;97.00
10030;DHT22;5055;52.054;8.524;2023-01-19T10:31:18;1.20;97.00
10030;DHT22;5055;52.054;8.524;2023-01-19T10:33:49;1.20;97.00
10030;DHT22;5055;52.054;8.524;2023-01-19T10:36:19;1.30;97.00
10030;DHT22;5055;52.054;8.524;2023-01-19T10:38:48;1.30;97.00
10030;DHT22;5055;52.054;8.524;2023-01-19T10:41:22;1.40;97.00
10030;DHT22;5055;52.054;8.524;2023-01-19T10:43:59;1.50;97.00
10030;DHT22;5055;52.054;8.524;2023-01-19T10:46:33;1.50;97.00
10030;DHT22;5055;52.054;8.524;2023-01-19T10:49:04;1.60;97.00
10030;DHT22;5055;52.054;8.524;2023-01-19T10:51:45;1.60;97.00
10030;DHT22;5055;52.054;8.524;2023-01-19T10:54:15;1.70;97.00
10030;DHT22;5055;52.054;8.524;2023-01-19T10:56:50;1.70;97.00
10030;DHT22;5055;52.054;8.524;2023-01-19T10:59:33;1.70;97.00
10030;DHT22;5055;52.054;8.524;2023-01-19T11:02:11;1.70;97.00
10030;DHT22;5055;52.054;8.524;2023-01-19T11:04:43;1.70;97.00
10030;DHT22;5055;52.054;8.524;2023-01-19T11:07:19;1.70;97.00
10030;DHT22;5055;52.054;8.524;2023-01-19T11:09:48;1.70;97.00
10030;DHT22;5055;52.054;8.524;2023-01-19T11:12:20;1.70;97.00
10030;DHT22;5055;52.054;8.524;2023-01-19T11:14:50;1.80;97.00
10030;DHT22;5055;52.054;8.524;2023-01-19T11:17:22;1.80;97.00
10030;DHT22;5055;52.054;8.524;2023-01-19T11:19:56;1.80;97.00
10030;DHT22;5055;52.054;8.524;2023-01-19T11:22:28;1.90;97.00
10030;DHT22;5055;52.054;8.524;2023-01-19T11:24:58;1.90;97.00
10030;DHT22;5055;52.054;8.524;2023-01-19T11:27:31;1.90;97.00
10030;DHT22;5055;52.054;8.524;2023-01-19T11:30:05;1.90;97.00
10030;DHT22;5055;52.054;8.524;2023-01-19T11:32:35;1.90;97.00
10030;DHT22;5055;52.054;8.524;2023-01-19T11:35:31;1.90;97.00
10030;DHT22;5055;52.054;8.524;2023-01-19T11:38:12;2.00;97.00
10030;DHT22;5055;52.054;8.524;2023-01-19T11:40:49;2.00;97.00
10030;DHT22;5055;52.054;8.524;2023-01-19T11:43:21;2.00;97.00
10030;DHT22;5055;52.054;8.524;2023-01-19T11:45:50;2.10;97.00
10030;DHT22;5055;52.054;8.524;2023-01-19T11:48:24;2.10;97.00
10030;DHT22;5055;52.054;8.524;2023-01-19T11:50:54;2.10;97.00
10030;DHT22;5055;52.054;8.524;2023-01-19T11:53:26;2.20;97.00
10030;DHT22;5055;52.054;8.524;2023-01-19T11:55:57;2.20;97.00
10030;DHT22;5055;52.054;8.524;2023-01-19T11:58:28;2.30;97.00
10030;DHT22;5055;52.054;8.524;2023-01-19T12:01:01;2.40;97.00
10030;DHT22;5055;52.054;8.524;2023-01-19T12:03:35;2.40;97.00
10030;DHT22;5055;52.054;8.524;2023-01-19T12:06:10;2.40;97.00
10030;DHT22;5055;52.054;8.524;2023-01-19T12:08:42;2.40;97.00
10030;DHT22;5055;52.054;8.524;2023-01-19T12:11:15;2.40;97.00
10030;DHT22;5055;52.054;8.524;2023-01-19T12:13:46;2.40;97.00
10030;DHT22;5055;52.054;8.524;2023-01-19T12:16:19;2.40;97.00
10030;DHT22;5055;52.054;8.524;2023-01-19T12:18:51;2.40;97.00
10030;DHT22;5055;52.054;8.524;2023-01-19T12:21:20;2.40;97.00
10030;DHT22;5055;52.054;8.524;2023-01-19T12:24:03;2.40;97.00
10030;DHT22;5055;52.054;8.524;2023-01-19T12:26:35;2.40;97.00
10030;DHT22;5055;52.054;8.524;2023-01-19T12:29:11;2.40;97.00
10030;DHT22;5055;52.054;8.524;2023-01-19T12:31:40;2.50;97.00
10030;DHT22;5055;52.054;8.524;2023-01-19T12:34:27;2.50;97.00
10030;DHT22;5055;52.054;8.524;2023-01-19T12:37:01;2.70;97.00
10030;DHT22;5055;52.054;8.524;2023-01-19T12:39:31;2.80;97.00
10030;DHT22;5055;52.054;8.524;2023-01-19T12:42:10;2.80;97.00
10030;DHT22;5055;52.054;8.524;2023-01-19T12:44:42;2.80;97.00
10030;DHT22;5055;52.054;8.524;2023-01-19T12:47:21;2.90;97.00
10030;DHT22;5055;52.054;8.524;2023-01-19T12:49:52;3.00;97.00
10030;DHT22;5055;52.054;8.524;2023-01-19T12:52:32;3.10;97.00
10030;DHT22;5055;52.054;8.524;2023-01-19T12:55:06;3.10;97.00
10030;DHT22;5055;52.054;8.524;2023-01-19T12:57:49;3.20;97.00
10030;DHT22;5055;52.054;8.524;2023-01-19T13:00:34;3.20;97.00
10030;DHT22;5055;52.054;8.524;2023-01-19T13:05:51;3.30;97.00
10030;DHT22;5055;52.054;8.524;2023-01-19T13:08:22;3.30;97.00
10030;DHT22;5055;52.054;8.524;2023-01-19T13:11:13;3.40;97.00
10030;DHT22;5055;52.054;8.524;2023-01-19T13:13:43;3.50;97.00
10030;DHT22;5055;52.054;8.524;2023-01-19T13:25:34;5.40;97.00
10030;DHT22;5055;52.054;8.524;2023-01-19T13:28:08;6.20;97.00
10030;DHT22;5055;52.054;8.524;2023-01-19T13:30:49;6.70;97.00
10030;DHT22;5055;52.054;8.524;2023-01-19T13:33:21;7.20;97.00
10030;DHT22;5055;52.054;8.524;2023-01-19T13:35:55;7.30;97.00
10030;DHT22;5055;52.054;8.524;2023-01-19T13:38:26;6.90;97.00
10030;DHT22;5055;52.054;8.524;2023-01-19T13:40:55;7.00;97.00
10030;DHT22;5055;52.054;8.524;2023-01-19T13:43:28;6.70;97.00
10030;DHT22;5055;52.054;8.524;2023-01-19T13:46:00;6.40;97.00
10030;DHT22;5055;52.054;8.524;2023-01-19T13:48:30;6.00;97.00
10030;DHT22;5055;52.054;8.524;2023-01-19T13:51:03;6.00;97.00
10030;DHT22;5055;52.054;8.524;2023-01-19T13:53:32;6.40;97.00
10030;DHT22;5055;52.054;8.524;2023-01-19T13:56:15;6.60;97.00
10030;DHT22;5055;52.054;8.524;2023-01-19T13:58:56;6.50;97.00
10030;DHT22;5055;52.054;8.524;2023-01-19T14:01:25;5.90;97.00
10030;DHT22;5055;52.054;8.524;2023-01-19T14:03:55;5.20;97.00
10030;DHT22;5055;52.054;8.524;2023-01-19T14:06:32;4.50;97.00
10030;DHT22;5055;52.054;8.524;2023-01-19T14:09:12;4.00;97.00
10030;DHT22;5055;52.054;8.524;2023-01-19T14:11:43;3.70;97.00
10030;DHT22;5055;52.054;8.524;2023-01-19T14:14:25;3.30;97.00
10030;DHT22;5055;52.054;8.524;2023-01-19T14:16:55;3.20;97.00
10030;DHT22;5055;52.054;8.524;2023-01-19T14:19:23;3.20;97.00
10030;DHT22;5055;52.054;8.524;2023-01-19T14:22:01;3.20;97.00
10030;DHT22;5055;52.054;8.524;2023-01-19T14:24:30;3.20;97.00
10030;DHT22;5055;52.054;8.524;2023-01-19T14:27:20;3.20;97.00
10030;DHT22;5055;52.054;8.524;2023-01-19T14:29:50;3.10;97.00
10030;DHT22;5055;52.054;8.524;2023-01-19T14:32:22;3.00;97.00
10030;DHT22;5055;52.054;8.524;2023-01-19T14:35:10;2.90;97.00
10030;DHT22;5055;52.054;8.524;2023-01-19T14:37:46;2.90;97.00
10030;DHT22;5055;52.054;8.524;2023-01-19T14:40:17;2.80;97.00
10030;DHT22;5055;52.054;8.524;2023-01-19T14:42:49;2.70;97.00
10030;DHT22;5055;52.054;8.524;2023-01-19T14:45:20;2.60;97.00
10030;DHT22;5055;52.054;8.524;2023-01-19T14:47:54;2.60;97.00
10030;DHT22;5055;52.054;8.524;2023-01-19T14:50:27;2.50;97.00
10030;DHT22;5055;52.054;8.524;2023-01-19T14:52:59;2.50;97.00
10030;DHT22;5055;52.054;8.524;2023-01-19T14:55:32;2.40;97.00
10030;DHT22;5055;52.054;8.524;2023-01-19T14:58:08;2.40;97.00
10030;DHT22;5055;52.054;8.524;2023-01-19T15:00:37;2.40;97.00
10030;DHT22;5055;52.054;8.524;2023-01-19T15:03:06;2.40;97.00
10030;DHT22;5055;52.054;8.524;2023-01-19T15:05:36;2.30;97.00
10030;DHT22;5055;52.054;8.524;2023-01-19T15:08:06;2.30;97.00
10030;DHT22;5055;52.054;8.524;2023-01-19T15:10:38;2.30;97.00
10030;DHT22;5055;52.054;8.524;2023-01-19T15:13:12;2.30;97.00
10030;DHT22;5055;52.054;8.524;2023-01-19T15:15:43;2.30;97.00
10030;DHT22;5055;52.054;8.524;2023-01-19T15:18:16;2.30;97.00
10030;DHT22;5055;52.054;8.524;2023-01-19T15:20:44;2.30;97.00
10030;DHT22;5055;52.054;8.524;2023-01-19T15:23:14;2.40;97.00
10030;DHT22;5055;52.054;8.524;2023-01-19T15:25:43;2.40;97.00
10030;DHT22;5055;52.054;8.524;2023-01-19T15:28:14;2.40;97.00
10030;DHT22;5055;52.054;8.524;2023-01-19T15:30:44;2.40;97.00
10030;DHT22;5055;52.054;8.524;2023-01-19T15:33:17;2.40;97.00
10030;DHT22;5055;52.054;8.524;2023-01-19T15:35:50;2.40;97.00
10030;DHT22;5055;52.054;8.524;2023-01-19T15:38:22;2.40;97.00
10030;DHT22;5055;52.054;8.524;2023-01-19T15:40:52;2.40;97.00
10030;DHT22;5055;52.054;8.524;2023-01-19T15:43:21;2.40;97.00
10030;DHT22;5055;52.054;8.524;2023-01-19T15:45:53;2.40;97.00
10030;DHT22;5055;52.054;8.524;2023-01-19T15:48:27;2.40;97.00
10030;DHT22;5055;52.054;8.524;2023-01-19T15:50:56;2.40;97.00
10030;DHT22;5055;52.054;8.524;2023-01-19T15:53:26;2.40;97.00
10030;DHT22;5055;52.054;8.524;2023-01-19T15:55:57;2.40;97.00
10030;DHT22;5055;52.054;8.524;2023-01-19T15:58:26;2.40;97.00
10030;DHT22;5055;52.054;8.524;2023-01-19T16:00:55;2.40;97.00
10030;DHT22;5055;52.054;8.524;2023-01-19T16:03:25;2.40;97.00
10030;DHT22;5055;52.054;8.524;2023-01-19T16:05:53;2.30;97.00
10030;DHT22;5055;52.054;8.524;2023-01-19T16:08:27;2.30;97.00
10030;DHT22;5055;52.054;8.524;2023-01-19T16:10:56;2.30;97.00
10030;DHT22;5055;52.054;8.524;2023-01-19T16:13:25;2.30;97.00
10030;DHT22;5055;52.054;8.524;2023-01-19T16:16:00;2.20;97.00
10030;DHT22;5055;52.054;8.524;2023-01-19T16:18:30;2.20;97.00
10030;DHT22;5055;52.054;8.524;2023-01-19T16:20:59;2.20;97.00
10030;DHT22;5055;52.054;8.524;2023-01-19T16:23:29;2.20;97.00
10030;DHT22;5055;52.054;8.524;2023-01-19T16:25:59;2.20;97.00
10030;DHT22;5055;52.054;8.524;2023-01-19T16:28:31;2.20;97.00
10030;DHT22;5055;52.054;8.524;2023-01-19T16:30:59;2.20;97.00
10030;DHT22;5055;52.054;8.524;2023-01-19T16:33:28;2.20;97.00
10030;DHT22;5055;52.054;8.524;2023-01-19T16:35:56;2.20;97.00
10030;DHT22;5055;52.054;8.524;2023-01-19T16:38:25;2.20;97.00
10030;DHT22;5055;52.054;8.524;2023-01-19T16:40:55;2.10;97.00